26 de setembro de 2022

Hora Código Clima Temp. Visibilidade Tecto Vento METAR/SPECI
6:27 da manhã
M
54 °F 9 mi 1.100 ft 010° 010° 4 kt METAR CYHU 261027Z AUTO 01004KT 9SM SCT007 BKN011 OVC018 12/11 A2952 RMK SLP997 DENSITY ALT 200FT
6:12 da manhã
I
54 °F 6 mi 500 ft 020° 020° 4 kt METAR CYHU 261012Z AUTO 02004KT 6SM BR BKN005 OVC009 12/12 A2951 RMK SLP995 DENSITY ALT 300FT
6:00 da manhã
I
54 °F 3 mi 700 ft 020° 020° 5 kt METAR CYHU 261000Z AUTO 02005KT 3SM BR OVC007 12/12 A2951 RMK SLP994 DENSITY ALT 300FT
5:58 da manhã
I
54 °F 3 mi 700 ft 020° 020° 5 kt METAR CYHU 260958Z AUTO 02005KT 3SM BR OVC007 12/12 A2950 RMK SLP993 DENSITY ALT 300FT
5:34 da manhã
I
54 °F 2½ mi 700 ft 020° 020° 3 kt METAR CYHU 260934Z AUTO 02003KT 2 1/2SM BR OVC007 12/11 A2950 RMK SLP993 DENSITY ALT 300FT
5:32 da manhã
I
54 °F 2½ mi 700 ft 020° 020° 3 kt METAR CYHU 260932Z AUTO 02003KT 2 1/2SM BR OVC007 12/11 A2950 RMK SLP993 DENSITY ALT 300FT
5:12 da manhã
L
54 °F 2 mi 300 ft 010° 010° 5 kt METAR CYHU 260912Z AUTO 01005KT 2SM -RA BR OVC003 12/12 A2950 RMK SLP992 DENSITY ALT 300FT
5:01 da manhã
L
54 °F 1¾ mi 300 ft 010° 010° 4 kt METAR CYHU 260901Z AUTO 01004KT 1 3/4SM -RA BR OVC003 12/12 A2950 RMK SLP993 DENSITY ALT 300FT
5:00 da manhã
L
54 °F 1¾ mi 300 ft 010° 010° 5 kt METAR CYHU 260900Z AUTO 01005KT 1 3/4SM BR OVC003 12/12 A2950 RMK SLP993 DENSITY ALT 300FT
4:59 da manhã
L
54 °F 1¾ mi 300 ft 010° 010° 5 kt METAR CYHU 260859Z AUTO 01005KT 1 3/4SM BR OVC003 12/12 A2950 RMK SLP993 DENSITY ALT 300FT
4:00 da manhã
I
54 °F 2½ mi 500 ft 360° 360° 5 kt METAR CYHU 260800Z AUTO 36005KT 2 1/2SM BR OVC005 12/12 A2950 RMK SLP991 DENSITY ALT 300FT
3:49 da manhã
I
54 °F 2½ mi 500 ft 360° 360° 4 kt METAR CYHU 260749Z AUTO 36004KT 2 1/2SM BR OVC005 12/12 A2950 RMK SLP991 DENSITY ALT 300FT
3:05 da manhã
I
54 °F 3 mi 500 ft 030° 030° 3 kt METAR CYHU 260705Z AUTO 03003KT 3SM BR OVC005 12/12 A2950 RMK SLP992 DENSITY ALT 300FT
3:02 da manhã
I
54 °F 3 mi 500 ft 030° 030° 3 kt METAR CYHU 260702Z AUTO 03003KT 3SM -RA BR OVC005 12/12 A2950 RMK SLP992 DENSITY ALT 300FT
2:38 da manhã
I
54 °F 2½ mi 500 ft 010° 010° 3 kt METAR CYHU 260638Z AUTO 01003KT 2 1/2SM -RA BR OVC005 12/12 A2950 RMK SLP993 DENSITY ALT 300FT
2:19 da manhã
I
54 °F 4 mi 500 ft 360° 360° 4 kt METAR CYHU 260619Z AUTO 36004KT 4SM -RA BR BKN005 OVC019 12/12 A2950 RMK SLP993 DENSITY ALT 300FT
2:05 da manhã
M
54 °F 5 mi 1.900 ft 360° 360° 4 kt METAR CYHU 260605Z AUTO 36004KT 5SM -RA BR SCT005 OVC019 12/12 A2950 RMK SLP992 DENSITY ALT 300FT
2:01 da manhã
M
54 °F 7 mi 1.900 ft 360° 360° 4 kt METAR CYHU 260601Z AUTO 36004KT 7SM FEW005 OVC019 12/12 A2950 RMK SLP992 DENSITY ALT 300FT
1:24 da manhã
M
54 °F 9 mi 1.900 ft 010° 010° 4 kt METAR CYHU 260524Z AUTO 01004KT 9SM FEW009 BKN019 BKN026 OVC030 12/12 A2950 RMK SLP991 DENSITY ALT 300FT
1:17 da manhã
M
54 °F 9 mi 2.600 ft 020° 020° 4 kt METAR CYHU 260517Z AUTO 02004KT 9SM FEW009 BKN026 OVC030 12/12 A2950 RMK SLP991 DENSITY ALT 300FT
1:00 da manhã
M
54 °F 9 mi 2.300 ft 020° 020° 4 kt METAR CYHU 260500Z AUTO 02004KT 9SM OVC023 12/12 A2950 RMK SLP992 DENSITY ALT 300FT
12:53 da manhã
M
54 °F 9 mi 2.300 ft 020° 020° 4 kt METAR CYHU 260453Z AUTO 02004KT 9SM OVC023 12/12 A2950 RMK SLP992 DENSITY ALT 300FT
12:22 da manhã
M
54 °F 9 mi 2.500 ft 040° 040° 5 kt METAR CYHU 260422Z AUTO 04005KT 9SM OVC025 12/12 A2950 RMK SLP993 DENSITY ALT 300FT
12:07 da manhã
M
54 °F 9 mi 2.500 ft 040° 040° 4 kt METAR CYHU 260407Z AUTO 04004KT 9SM -RA OVC025 12/12 A2951 RMK SLP996 DENSITY ALT 300FT

25 de setembro de 2022

Hora Código Clima Temp. Visibilidade Tecto Vento METAR/SPECI
11:00 da tarde
M
54 °F 9 mi 2.500 ft 020° 020° 4 kt METAR CYHU 260300Z AUTO 02004KT 9SM OVC025 12/11 A2953 RMK SLP001 DENSITY ALT 300FT
10:53 da tarde
M
54 °F 9 mi 2.500 ft 020° 020° 4 kt METAR CYHU 260253Z AUTO 02004KT 9SM OVC025 12/11 A2953 RMK SLP001 DENSITY ALT 300FT
10:31 da tarde
M
55 °F 9 mi 2.500 ft 020° 020° 5 kt METAR CYHU 260231Z AUTO 02005KT 9SM -RA OVC025 13/11 A2953 RMK SLP002 DENSITY ALT 300FT
10:29 da tarde
M
54 °F 9 mi 2.500 ft 030° 030° 5 kt METAR CYHU 260229Z AUTO 03005KT 9SM OVC025 12/11 A2953 RMK SLP002 DENSITY ALT 300FT
10:00 da tarde
M
55 °F 9 mi 2.400 ft 050° 050° 3 kt METAR CYHU 260200Z AUTO 05003KT 9SM OVC024 13/11 A2953 RMK SLP003 DENSITY ALT 300FT
9:24 da tarde
M
55 °F 9 mi 2.200 ft 090° 090° 4 kt METAR CYHU 260124Z AUTO 09004KT 9SM BKN022 OVC086 13/11 A2954 RMK SLP005 DENSITY ALT 300FT
9:00 da tarde
V
55 °F 9 mi 5.500 ft 100° 100° 5 kt METAR CYHU 260100Z AUTO 10005KT 9SM SCT022 BKN055 OVC083 13/11 A2954 RMK SLP006 DENSITY ALT 300FT
8:00 da tarde
V
55 °F 9 mi 8.600 ft 110° 110° 4 kt METAR CYHU 260000Z AUTO 11004KT 9SM OVC086 13/11 A2955 RMK SLP010 DENSITY ALT 300FT
7:00 da tarde
V
57 °F 9 mi 6.600 ft 120° 120° 5 kt METAR CYHU 252300Z AUTO 12005KT 9SM OVC066 14/11 A2956 RMK SLP013 DENSITY ALT 400FT
6:00 da tarde
V
57 °F 9 mi 11.000 ft 160° 160° 7 kt METAR CYHU 252200Z AUTO 16007KT 9SM OVC110 14/10 A2957 RMK SLP014 DENSITY ALT 500FT
5:00 da tarde
V
59 °F 9 mi 10.000 ft 170° 170° 9 kt METAR CYHU 252100Z AUTO 17009KT 9SM BKN100 BKN120 15/10 A2957 RMK SLP014 DENSITY ALT 600FT
4:00 da tarde
V
61 °F 9 mi 6.600 ft 160° 160° 8 kt METAR CYHU 252000Z AUTO 16008KT 9SM OVC066 16/10 A2958 RMK SLP018 DENSITY ALT 600FT
3:00 da tarde
V
63 °F 9 mi 7.600 ft 170° 170° 8 kt METAR CYHU 251900Z AUTO 17008KT 9SM BKN076 BKN120 17/09 A2959 RMK SLP022 DENSITY ALT 800FT
2:00 da tarde
V
63 °F 9 mi 8.100 ft 150° 150° 9 kt METAR CYHU 251800Z AUTO 15009KT 9SM BKN081 BKN110 OVC140 17/10 A2961 RMK SLP028 DENSITY ALT 800FT
1:00 da tarde
V
63 °F 9 mi 14.000 ft 170° 170° 8 kt METAR CYHU 251700Z AUTO 17008KT 9SM SCT086 BKN140 17/10 A2964 RMK SLP039 DENSITY ALT 700FT
12:00 da tarde
V
61 °F 9 mi 14.000 ft 200° 200° 6 kt METAR CYHU 251600Z AUTO 20006KT 9SM BKN140 16/10 A2965 RMK SLP044 DENSITY ALT 600FT
11:00 da manhã
V
59 °F 9 mi - 190° 190° 7 kt METAR CYHU 251500Z AUTO 19007KT 9SM FEW100 SCT160 15/11 A2968 RMK SLP051 DENSITY ALT 400FT
10:00 da manhã
V
55 °F 9 mi 15.000 ft 190° 190° 6 kt METAR CYHU 251400Z AUTO 19006KT 9SM BKN150 13/10 A2970 RMK SLP058 DENSITY ALT 200FT
9:00 da manhã
V
52 °F 9 mi 13.000 ft 170° 170° 3 kt METAR CYHU 251300Z AUTO 17003KT 9SM FEW096 OVC130 11/09 A2971 RMK SLP062
8:17 da manhã
V
50 °F 9 mi 10.000 ft 170° 170° 4 kt METAR CYHU 251217Z AUTO 17004KT 9SM BKN100 OVC120 10/08 A2971 RMK SLP062
8:00 da manhã
V
50 °F 9 mi 10.000 ft 150° 150° 6 kt METAR CYHU 251200Z AUTO 15006KT 9SM -RA BKN100 OVC130 10/08 A2971 RMK SLP062
7:57 da manhã
V
50 °F 9 mi 10.000 ft 150° 150° 5 kt METAR CYHU 251157Z AUTO 15005KT 9SM -RA BKN100 OVC130 10/08 A2971 RMK SLP062
7:00 da manhã
V
50 °F 9 mi 11.000 ft 170° 170° 7 kt METAR CYHU 251100Z AUTO 17007KT 9SM OVC110 10/08 A2972 RMK SLP065
6:00 da manhã
V
48 °F 9 mi 12.000 ft 160° 160° 5 kt METAR CYHU 251000Z AUTO 16005KT 9SM BKN120 OVC200 09/08 A2972 RMK SLP066
5:00 da manhã
V
52 °F 9 mi 20.000 ft 240° 240° 7 kt METAR CYHU 250900Z AUTO 24007KT 9SM OVC200 11/10 A2973 RMK SLP070
4:00 da manhã
V
52 °F 9 mi 21.000 ft 210° 210° 7 kt METAR CYHU 250800Z AUTO 21007KT 9SM FEW150 OVC210 11/10 A2974 RMK SLP073
3:00 da manhã
V
52 °F 9 mi - 220° 220° 9 kt METAR CYHU 250700Z AUTO 22009KT 9SM SCT210 11/10 A2975 RMK SLP078
2:00 da manhã
V
54 °F 9 mi 22.000 ft 230° 230° 7 kt METAR CYHU 250600Z AUTO 23007KT 9SM OVC220 12/10 A2977 RMK SLP083
1:00 da manhã
V
52 °F 9 mi - 220° 220° 6 kt METAR CYHU 250500Z AUTO 22006KT 9SM SCT200 11/09 A2978 RMK SLP086
12:00 da manhã
V
55 °F 9 mi - 250° 250° 11 kt METAR CYHU 250400Z AUTO 25011KT 9SM CLR 13/08 A2978 RMK SLP087 DENSITY ALT 100FT

24 de setembro de 2022

Hora Código Clima Temp. Visibilidade Tecto Vento METAR/SPECI
11:00 da tarde
V
57 °F 9 mi - 250° 250° 7 kt METAR CYHU 250300Z AUTO 25007KT 230V290 9SM CLR 14/07 A2979 RMK SLP090 DENSITY ALT 200FT
10:00 da tarde
V
59 °F 9 mi - 280° 280° 9 kt METAR CYHU 250200Z AUTO 28009KT 9SM CLR 15/07 A2979 RMK SLP090 DENSITY ALT 300FT
9:00 da tarde
V
59 °F 9 mi - 260° 260° 10 - 16 kt METAR CYHU 250100Z AUTO 26010G16KT 9SM CLR 15/07 A2979 RMK SLP090 DENSITY ALT 300FT
8:00 da tarde
V
59 °F 9 mi - 260° 260° 8 kt METAR CYHU 250000Z AUTO 26008KT 9SM CLR 15/07 A2979 RMK SLP090 DENSITY ALT 300FT
7:00 da tarde
V
63 °F 9 mi - 270° 270° 11 - 16 kt METAR CYHU 242300Z AUTO 27011G16KT 9SM CLR 17/06 A2979 RMK SLP091 DENSITY ALT 500FT
6:00 da tarde
V
64 °F 9 mi - 260° 260° 15 - 20 kt METAR CYHU 242200Z AUTO 26015G20KT 9SM CLR 18/06 A2980 RMK SLP092 DENSITY ALT 600FT
5:00 da tarde
V
66 °F 9 mi - 270° 270° 9 - 17 kt METAR CYHU 242100Z AUTO 27009G17KT 9SM CLR 19/06 A2981 RMK SLP096 DENSITY ALT 800FT
4:00 da tarde
V
68 °F 9 mi - 250° 250° 15 kt METAR CYHU 242000Z AUTO 25015KT 240V310 9SM FEW050 20/08 A2982 RMK SLP099 DENSITY ALT 800FT
3:00 da tarde
V
66 °F 9 mi - 270° 270° 12 - 19 kt METAR CYHU 241900Z AUTO 27012G19KT 250V310 9SM FEW050 19/07 A2984 RMK SLP107 DENSITY ALT 700FT
2:00 da tarde
V
66 °F 9 mi - 270° 270° 14 - 22 kt METAR CYHU 241800Z AUTO 27014G22KT 9SM FEW050 19/07 A2986 RMK SLP114 DENSITY ALT 700FT
1:00 da tarde
V
64 °F 9 mi - 270° 270° 13 - 19 kt METAR CYHU 241700Z AUTO 27013G19KT 9SM CLR 18/07 A2989 RMK SLP122 DENSITY ALT 500FT
12:15 da tarde
V
63 °F 9 mi - 240° 240° 10 - 15 kt METAR CYHU 241615Z AUTO 24010G15KT 9SM CLR 17/07 A2990 RMK WSHFT AT 1600Z SLP127 DENSITY ALT 400FT
12:00 da tarde
V
63 °F 9 mi - 290° 290° 10 - 17 kt METAR CYHU 241600Z AUTO 29010G17KT 9SM CLR 17/06 A2991 RMK SLP130 DENSITY ALT 400FT
11:00 da manhã
V
59 °F 9 mi - 290° 290° 11 kt METAR CYHU 241500Z AUTO 29011KT 250V320 9SM CLR 15/06 A2993 RMK SLP138 DENSITY ALT 100FT
10:00 da manhã
V
55 °F 9 mi - 280° 280° 11 kt METAR CYHU 241400Z AUTO 28011KT 270V340 9SM CLR 13/05 A2994 RMK SLP141
9:00 da manhã
V
52 °F 9 mi - 270° 270° 10 - 17 kt METAR CYHU 241300Z AUTO 27010G17KT 9SM CLR 11/05 A2994 RMK SLP142
8:00 da manhã
V
48 °F 9 mi - 280° 280° 9 kt METAR CYHU 241200Z AUTO 28009KT 9SM CLR 09/05 A2995 RMK SLP144
7:00 da manhã
V
45 °F 9 mi - 270° 270° 9 - 16 kt METAR CYHU 241100Z AUTO 27009G16KT 9SM CLR 07/04 A2995 RMK SLP144
6:00 da manhã
V
43 °F 9 mi - 250° 250° 7 kt METAR CYHU 241000Z AUTO 25007KT 9SM CLR 06/03 A2995 RMK SLP144
Dados mais antigos

Nós e terceiros acompanhamos seu comportamento na internet em nosso site com cookies. Se você continuar, nós assumimos que você concorda com nossa política de cookies. Saiba mais